Time;durP1;ratioP1;P1;durP2;ratioP2;P2;SDS_P1;SDS_P2;PMS_P1;PMS_P2;Temp;Humidity;BMP_temperature;BMP_pressure;BME280_temperature;BME280_humidity;BME280_pressure;Samples;Min_cycle;Max_cycle;Signal;HPM_P1;HPM_P2
2022/11/27 00:00:21;;;;;;;22.77;6.83;;;6.80;99.90;;;;;;5092879;28;20483;-87
2022/11/27 00:02:47;;;;;;;26.80;7.53;;;6.80;99.90;;;;;;5093204;28;20364;-87
2022/11/27 00:05:13;;;;;;;30.83;7.90;;;6.80;99.90;;;;;;5092867;28;20491;-87
2022/11/27 00:07:38;;;;;;;24.57;7.30;;;6.80;99.90;;;;;;5092059;28;20479;-87
2022/11/27 00:10:05;;;;;;;20.93;7.13;;;6.80;99.90;;;;;;5091960;28;20048;-88
2022/11/27 00:12:31;;;;;;;23.37;7.73;;;6.80;99.90;;;;;;5091833;28;20137;-87
2022/11/27 00:14:57;;;;;;;27.40;7.60;;;6.80;99.90;;;;;;5091749;28;20298;-88
2022/11/27 00:17:23;;;;;;;26.93;7.23;;;6.80;99.90;;;;;;5092814;28;20082;-87
2022/11/27 00:19:48;;;;;;;22.43;7.50;;;6.80;99.90;;;;;;5093102;28;20048;-87
2022/11/27 00:22:14;;;;;;;24.40;7.17;;;6.80;99.90;;;;;;5091812;28;20074;-86
2022/11/27 00:24:39;;;;;;;20.73;6.40;;;6.80;99.90;;;;;;5092024;28;20043;-87
2022/11/27 00:27:05;;;;;;;27.10;7.17;;;6.80;99.90;;;;;;5091778;28;20048;-87
2022/11/27 00:29:31;;;;;;;21.77;6.73;;;6.80;99.90;;;;;;5091660;28;20130;-87
2022/11/27 00:31:57;;;;;;;23.10;6.77;;;6.80;99.90;;;;;;5092491;28;20051;-87
2022/11/27 00:34:22;;;;;;;21.20;7.27;;;6.80;99.90;;;;;;5095661;28;20044;-87
2022/11/27 00:36:48;;;;;;;22.70;6.43;;;6.80;99.90;;;;;;5097155;28;20051;-88
2022/11/27 00:39:14;;;;;;;19.53;7.43;;;;;;;;;;5095194;28;20400;-88
2022/11/27 00:41:40;;;;;;;21.07;7.07;;;6.80;99.90;;;;;;5096277;28;20056;-87
2022/11/27 00:44:06;;;;;;;25.93;7.03;;;6.70;99.90;;;;;;5095639;28;20293;-88
2022/11/27 00:46:33;;;;;;;27.90;7.57;;;6.70;99.90;;;;;;5096321;28;20039;-87
2022/11/27 00:49:01;;;;;;;24.03;6.07;;;6.70;99.90;;;;;;5095710;28;20484;-86
2022/11/27 00:51:27;;;;;;;22.77;7.20;;;6.80;99.90;;;;;;5094925;28;20380;-87
2022/11/27 00:53:53;;;;;;;20.33;6.37;;;6.70;99.90;;;;;;5095581;28;20286;-87
2022/11/27 00:56:22;;;;;;;19.03;6.23;;;6.70;99.90;;;;;;5095232;28;20285;-87
2022/11/27 00:58:48;;;;;;;21.13;6.47;;;6.70;99.90;;;;;;5095536;28;20769;-88
2022/11/27 01:01:17;;;;;;;23.53;6.83;;;6.70;99.90;;;;;;5095078;28;20336;-87
2022/11/27 01:03:44;;;;;;;24.83;6.67;;;6.70;99.90;;;;;;5062114;28;20340;-88
2022/11/27 01:06:10;;;;;;;19.80;5.60;;;6.70;99.90;;;;;;5094874;28;20389;-87
2022/11/27 01:08:36;;;;;;;25.20;7.50;;;6.70;99.90;;;;;;5094592;28;20368;-87
2022/11/27 01:11:02;;;;;;;24.67;6.37;;;6.60;99.90;;;;;;5078157;28;20063;-87
2022/11/27 01:13:30;;;;;;;18.27;6.73;;;6.60;99.90;;;;;;5095762;28;20742;-87
2022/11/27 01:15:59;;;;;;;21.80;7.20;;;6.60;99.90;;;;;;5096188;28;20036;-87
2022/11/27 01:18:25;;;;;;;21.83;6.07;;;6.60;99.90;;;;;;5094655;28;20287;-87
2022/11/27 01:20:54;;;;;;;16.97;5.63;;;6.60;99.90;;;;;;5095556;28;20898;-87
2022/11/27 01:23:21;;;;;;;19.97;5.83;;;6.60;99.90;;;;;;5095432;28;20044;-87
2022/11/27 01:25:47;;;;;;;18.17;6.03;;;6.60;99.90;;;;;;5094640;28;20302;-87
2022/11/27 01:28:13;;;;;;;19.73;6.30;;;6.60;99.90;;;;;;5095717;28;20278;-87
2022/11/27 01:30:39;;;;;;;23.10;6.80;;;6.60;99.90;;;;;;5094418;28;20761;-87
2022/11/27 01:33:05;;;;;;;16.00;6.47;;;6.60;99.90;;;;;;5095921;28;20282;-87
2022/11/27 01:35:31;;;;;;;21.80;6.43;;;6.50;99.90;;;;;;5095363;28;20281;-87
2022/11/27 01:37:56;;;;;;;17.67;5.73;;;6.50;99.90;;;;;;5095636;28;20051;-87
2022/11/27 01:40:22;;;;;;;19.73;6.57;;;6.50;99.90;;;;;;5094397;28;20290;-86
2022/11/27 01:42:48;;;;;;;26.03;5.93;;;6.60;99.90;;;;;;5094349;28;20063;-88
2022/11/27 01:45:19;;;;;;;22.00;6.77;;;6.50;99.90;;;;;;5093830;28;20062;-88
2022/11/27 01:47:51;;;;;;;19.67;6.33;;;6.50;99.90;;;;;;5095395;28;20048;-87
2022/11/27 01:50:34;;;;;;;20.80;6.00;;;6.50;99.90;;;;;;5095295;28;20828;-86
2022/11/27 01:53:16;;;;;;;17.10;5.87;;;6.50;99.90;;;;;;5095354;28;20312;-87
2022/11/27 01:55:52;;;;;;;17.47;6.40;;;6.50;99.90;;;;;;5094125;28;20283;-88
2022/11/27 01:58:25;;;;;;;18.43;5.43;;;6.60;99.90;;;;;;5095252;28;20284;-86
2022/11/27 02:00:51;;;;;;;29.30;6.57;;;6.50;99.90;;;;;;5095097;28;20282;-88
2022/11/27 02:03:17;;;;;;;19.93;6.10;;;6.60;99.90;;;;;;5095186;28;20362;-88
2022/11/27 02:05:43;;;;;;;18.27;6.33;;;6.60;99.90;;;;;;5094790;28;20225;-87
2022/11/27 02:08:13;;;;;;;23.13;6.83;;;6.60;99.90;;;;;;5095167;28;20388;-88
2022/11/27 02:10:52;;;;;;;18.37;6.27;;;6.60;99.90;;;;;;5093713;28;20059;-88
2022/11/27 02:13:39;;;;;;;18.37;5.97;;;6.60;99.90;;;;;;5094121;28;20286;-88
2022/11/27 02:16:23;;;;;;;18.83;6.67;;;6.60;99.90;;;;;;5093944;28;20298;-88
2022/11/27 02:19:01;;;;;;;19.97;6.17;;;6.60;99.90;;;;;;5094764;28;20322;-88
2022/11/27 02:21:30;;;;;;;17.57;5.87;;;6.60;99.90;;;;;;5094230;28;20804;-88
2022/11/27 02:24:26;;;;;;;17.57;5.40;;;6.60;99.90;;;;;;5094697;28;20365;-87
2022/11/27 02:27:17;;;;;;;18.02;6.03;;;6.60;99.90;;;;;;5093641;28;20306;-87
2022/11/27 02:29:48;;;;;;;19.13;5.77;;;6.60;99.90;;;;;;5093413;28;20044;-87
2022/11/27 02:32:31;;;;;;;18.57;5.73;;;6.50;99.90;;;;;;5076895;28;20293;-87
2022/11/27 02:35:05;;;;;;;17.90;5.60;;;6.60;99.90;;;;;;5094774;28;20622;-87
2022/11/27 02:38:21;;;;;;;22.95;6.50;;;6.60;99.90;;;;;;5093351;28;20290;-87
2022/11/27 02:40:55;;;;;;;17.07;5.67;;;6.50;99.90;;;;;;5059591;28;20143;-87
2022/11/27 02:43:33;;;;;;;16.63;5.40;;;6.60;99.90;;;;;;5093227;28;20274;-87
2022/11/27 02:46:01;;;;;;;17.03;5.80;;;6.60;99.90;;;;;;5094453;28;20362;-87
2022/11/27 02:48:33;;;;;;;18.90;6.33;;;6.50;99.90;;;;;;5093926;28;20278;-86
2022/11/27 02:51:01;;;;;;;17.83;6.00;;;6.60;99.90;;;;;;5076636;28;20282;-86
2022/11/27 02:53:37;;;;;;;15.67;6.07;;;6.60;99.90;;;;;;5093895;28;20335;-86
2022/11/27 02:56:08;;;;;;;14.00;5.87;;;6.60;99.90;;;;;;5093753;28;20274;-86
2022/11/27 02:58:36;;;;;;;19.37;6.50;;;6.60;99.90;;;;;;5092793;28;20600;-86
2022/11/27 03:01:04;;;;;;;14.00;5.67;;;6.50;99.90;;;;;;5092693;28;20297;-87
2022/11/27 03:03:37;;;;;;;15.30;5.50;;;6.60;99.90;;;;;;5093744;28;20611;-86
2022/11/27 03:06:10;;;;;;;17.33;5.97;;;6.50;99.90;;;;;;5092934;28;20309;-87
2022/11/27 03:09:01;;;;;;;14.70;5.73;;;6.60;99.90;;;;;;5093713;28;20278;-87
2022/11/27 03:11:29;;;;;;;15.17;5.37;;;6.60;99.90;;;;;;5092774;28;20308;-86
2022/11/27 03:14:03;;;;;;;14.13;5.43;;;6.60;99.90;;;;;;5093794;28;20293;-87
2022/11/27 03:16:51;;;;;;;14.40;6.27;;;6.50;99.90;;;;;;5092663;28;20282;-86
2022/11/27 03:19:23;;;;;;;17.57;5.77;;;6.50;99.90;;;;;;5092779;28;20297;-89
2022/11/27 03:21:56;;;;;;;16.77;6.17;;;6.60;99.90;;;;;;5092501;28;20832;-88
2022/11/27 03:24:22;;;;;;;20.57;6.07;;;6.60;99.90;;;;;;5092739;28;20343;-87
2022/11/27 03:26:48;;;;;;;17.77;5.97;;;6.60;99.90;;;;;;5093337;28;20298;-87
2022/11/27 03:29:26;;;;;;;18.23;6.50;;;6.60;99.90;;;;;;5092640;28;20294;-88
2022/11/27 03:31:52;;;;;;;17.40;6.37;;;6.60;99.90;;;;;;5094072;28;20785;-87
2022/11/27 03:34:17;;;;;;;16.20;6.20;;;6.60;99.90;;;;;;5107173;28;20286;-87
2022/11/27 03:36:45;;;;;;;18.00;7.07;;;6.60;99.90;;;;;;5105770;28;20136;-87
2022/11/27 03:39:11;;;;;;;15.23;5.93;;;6.60;99.90;;;;;;5096117;28;20056;-87
2022/11/27 03:41:44;;;;;;;19.77;6.77;;;6.60;99.90;;;;;;5093003;28;20792;-86
2022/11/27 03:44:28;;;;;;;17.23;6.17;;;6.60;99.90;;;;;;5092502;28;20278;-87
2022/11/27 03:47:03;;;;;;;19.23;6.67;;;6.60;99.90;;;;;;5092460;28;20293;-87
2022/11/27 03:49:57;;;;;;;14.82;5.93;;;6.60;99.90;;;;;;5093470;28;20282;-86
2022/11/27 03:53:03;;;;;;;21.47;7.47;;;6.60;99.90;;;;;;5092523;28;20060;-87
2022/11/27 03:55:44;;;;;;;16.67;6.32;;;6.60;99.90;;;;;;5093031;28;20343;-87
2022/11/27 03:58:37;;;;;;;22.67;7.17;;;6.60;99.90;;;;;;5093204;28;20101;-87
2022/11/27 04:01:06;;;;;;;16.93;6.57;;;6.60;99.90;;;;;;5093221;28;20274;-87
2022/11/27 04:03:32;;;;;;;14.90;6.50;;;6.60;99.90;;;;;;5091876;28;20372;-86
2022/11/27 04:05:58;;;;;;;21.23;6.30;;;6.60;99.90;;;;;;5092057;28;20393;-88
2022/11/27 04:08:24;;;;;;;18.37;6.87;;;6.60;99.90;;;;;;5096107;28;20051;-87
2022/11/27 04:10:50;;;;;;;14.70;6.67;;;6.60;99.90;;;;;;5096984;28;20091;-88
2022/11/27 04:13:16;;;;;;;15.77;7.27;;;6.60;99.90;;;;;;5096064;28;20309;-87
2022/11/27 04:15:41;;;;;;;13.97;6.40;;;6.60;99.90;;;;;;5096973;28;20397;-86
2022/11/27 04:18:07;;;;;;;18.80;6.40;;;6.60;99.90;;;;;;5097156;28;20044;-86
2022/11/27 04:20:33;;;;;;;20.73;6.93;;;6.60;99.90;;;;;;5097107;28;20040;-86
2022/11/27 04:22:58;;;;;;;15.93;5.83;;;6.60;99.90;;;;;;5078982;28;20476;-86
2022/11/27 04:25:24;;;;;;;14.93;6.50;;;6.60;99.90;;;;;;5096144;28;20044;-86
2022/11/27 04:27:50;;;;;;;21.93;6.47;;;6.50;99.90;;;;;;5096694;28;20151;-86
2022/11/27 04:30:16;;;;;;;18.10;6.20;;;6.50;99.90;;;;;;5095804;28;20047;-87
2022/11/27 04:32:42;;;;;;;18.60;7.50;;;6.50;99.90;;;;;;5078825;28;20134;-87
2022/11/27 04:35:08;;;;;;;18.73;6.40;;;6.40;99.90;;;;;;5096798;28;20369;-87
2022/11/27 04:37:34;;;;;;;17.30;6.37;;;6.50;99.90;;;;;;5095638;28;20082;-88
2022/11/27 04:40:00;;;;;;;14.53;5.70;;;6.50;99.90;;;;;;5095385;28;20286;-86
2022/11/27 04:42:26;;;;;;;13.23;6.00;;;6.50;99.90;;;;;;5096633;28;20290;-87
2022/11/27 04:44:52;;;;;;;14.57;5.87;;;6.50;99.90;;;;;;5078519;28;20642;-88
2022/11/27 04:47:17;;;;;;;19.50;6.30;;;6.50;99.90;;;;;;5078414;28;20044;-88
2022/11/27 04:49:43;;;;;;;13.63;5.40;;;6.50;99.90;;;;;;5096267;28;20484;-85
2022/11/27 04:52:11;;;;;;;15.50;5.83;;;6.50;99.90;;;;;;5095827;28;20475;-86
2022/11/27 04:54:37;;;;;;;18.90;6.47;;;6.50;99.90;;;;;;5096431;28;20044;-85
2022/11/27 04:57:03;;;;;;;16.53;5.67;;;6.50;99.90;;;;;;5096414;28;20359;-85
2022/11/27 04:59:29;;;;;;;18.43;5.53;;;6.50;99.90;;;;;;5096373;28;20281;-85
2022/11/27 05:01:55;;;;;;;14.80;5.50;;;6.50;99.90;;;;;;5096090;28;20051;-85
2022/11/27 05:04:21;;;;;;;14.13;5.00;;;6.50;99.90;;;;;;5095051;28;20126;-86
2022/11/27 05:06:47;;;;;;;14.80;5.70;;;6.60;99.90;;;;;;5095820;28;20097;-85
2022/11/27 05:09:13;;;;;;;18.47;5.87;;;6.50;99.90;;;;;;5096130;28;20336;-86
2022/11/27 05:11:39;;;;;;;16.30;5.20;;;6.60;99.90;;;;;;5095154;28;20294;-86
2022/11/27 05:14:21;;;;;;;16.90;5.77;;;6.60;99.90;;;;;;5094844;28;20124;-86
2022/11/27 05:16:48;;;;;;;16.77;6.47;;;6.60;99.90;;;;;;5094799;28;20055;-86
2022/11/27 05:19:15;;;;;;;15.37;5.77;;;6.60;99.90;;;;;;5094719;28;20294;-86
2022/11/27 05:21:42;;;;;;;14.10;4.70;;;6.60;99.90;;;;;;5095763;28;20280;-84
2022/11/27 05:24:08;;;;;;;16.48;5.00;;;6.60;99.90;;;;;;5094643;28;20278;-86
2022/11/27 05:26:34;;;;;;;13.70;5.20;;;6.60;99.90;;;;;;5095452;28;20511;-86
2022/11/27 05:29:00;;;;;;;12.25;5.35;;;6.60;99.90;;;;;;5095474;28;20274;-86
2022/11/27 05:31:26;;;;;;;13.37;4.90;;;6.60;99.90;;;;;;5077918;28;20130;-86
2022/11/27 05:33:52;;;;;;;13.00;4.82;;;6.60;99.90;;;;;;5077523;28;20051;-85
2022/11/27 05:36:18;;;;;;;12.20;4.97;;;6.60;99.90;;;;;;5094690;28;20060;-85
2022/11/27 05:38:43;;;;;;;14.77;4.97;;;6.60;99.90;;;;;;5095336;28;20127;-85
2022/11/27 05:41:09;;;;;;;15.93;5.57;;;6.60;99.90;;;;;;5094175;28;20446;-85
2022/11/27 05:43:35;;;;;;;14.37;5.27;;;6.60;99.90;;;;;;5094611;28;20048;-85
2022/11/27 05:46:05;;;;;;;17.67;5.90;;;6.60;99.90;;;;;;5093765;28;20123;-85
2022/11/27 05:48:32;;;;;;;13.05;5.10;;;6.60;99.90;;;;;;5095344;28;20048;-86
2022/11/27 05:50:58;;;;;;;12.57;4.50;;;6.60;99.90;;;;;;5095048;28;20055;-86
2022/11/27 05:53:23;;;;;;;10.33;4.87;;;6.60;99.90;;;;;;5095305;28;20278;-86
2022/11/27 05:55:49;;;;;;;14.53;4.80;;;6.60;99.90;;;;;;5094948;28;20036;-85
2022/11/27 05:58:15;;;;;;;13.53;5.27;;;6.60;99.90;;;;;;5094191;28;20044;-85
2022/11/27 06:00:40;;;;;;;13.70;4.70;;;6.60;99.90;;;;;;5095362;28;20036;-85
2022/11/27 06:03:06;;;;;;;13.57;5.40;;;6.60;99.90;;;;;;5093410;28;20104;-85
2022/11/27 06:05:32;;;;;;;13.40;4.20;;;6.60;99.90;;;;;;5095095;28;20131;-85
2022/11/27 06:07:58;;;;;;;13.67;4.23;;;6.60;99.90;;;;;;5094828;28;20062;-85
2022/11/27 06:10:23;;;;;;;13.87;4.07;;;6.60;99.90;;;;;;5095287;28;20048;-86
2022/11/27 06:12:49;;;;;;;14.07;5.07;;;6.60;99.90;;;;;;5093728;28;20087;-85
2022/11/27 06:15:15;;;;;;;11.63;4.20;;;6.70;99.90;;;;;;5094907;28;20044;-84
2022/11/27 06:17:40;;;;;;;13.30;4.67;;;6.60;99.90;;;;;;5094769;28;20048;-85
2022/11/27 06:20:07;;;;;;;10.00;4.33;;;6.60;99.90;;;;;;5094513;28;20047;-85
2022/11/27 06:22:32;;;;;;;13.70;4.40;;;6.60;99.90;;;;;;5093554;28;20048;-86
2022/11/27 06:24:58;;;;;;;12.67;4.47;;;6.60;99.90;;;;;;5076265;28;20641;-86
2022/11/27 06:27:24;;;;;;;9.73;4.90;;;6.60;99.90;;;;;;5094765;28;20070;-86
2022/11/27 06:29:49;;;;;;;14.53;4.80;;;6.60;99.90;;;;;;5093627;28;20048;-85
2022/11/27 06:32:15;;;;;;;15.70;4.33;;;6.60;99.90;;;;;;5076796;28;20106;-86
2022/11/27 06:34:40;;;;;;;14.10;4.77;;;6.60;99.90;;;;;;5093243;28;20055;-86
2022/11/27 06:37:06;;;;;;;12.50;4.70;;;6.60;99.90;;;;;;5092571;28;20054;-84
2022/11/27 06:39:32;;;;;;;12.40;4.33;;;6.60;99.90;;;;;;5093228;28;20071;-84
2022/11/27 06:41:59;;;;;;;12.75;4.80;;;6.60;99.90;;;;;;5093809;28;20105;-84
2022/11/27 06:44:24;;;;;;;14.73;7.10;;;6.60;99.90;;;;;;5093629;28;20438;-85
2022/11/27 06:46:51;;;;;;;9.43;4.20;;;6.60;99.90;;;;;;5094190;28;20077;-85
2022/11/27 06:49:19;;;;;;;13.25;4.85;;;6.60;99.90;;;;;;5094189;28;20407;-85
2022/11/27 06:51:45;;;;;;;14.93;5.10;;;6.60;99.90;;;;;;5092680;28;20040;-85
2022/11/27 06:54:10;;;;;;;15.10;4.13;;;6.60;99.90;;;;;;5092928;28;20335;-85
2022/11/27 06:56:36;;;;;;;29.60;21.10;;;6.70;99.90;;;;;;5094401;28;20040;-85
2022/11/27 06:59:02;;;;;;;15.97;4.90;;;6.60;99.90;;;;;;5075995;28;20384;-85
2022/11/27 07:01:29;;;;;;;11.90;4.77;;;6.60;99.90;;;;;;5093774;28;20131;-85
2022/11/27 07:03:56;;;;;;;12.67;5.70;;;6.60;99.90;;;;;;5092699;28;20100;-85
2022/11/27 07:06:23;;;;;;;40.50;22.03;;;6.60;99.90;;;;;;5092711;28;20362;-86
2022/11/27 07:08:50;;;;;;;13.80;5.40;;;6.70;99.90;;;;;;5093105;28;20334;-85
2022/11/27 07:11:21;;;;;;;14.23;6.03;;;6.60;99.90;;;;;;5093555;28;20630;-85
2022/11/27 07:13:49;;;;;;;12.70;4.80;;;6.60;99.90;;;;;;5093850;28;20285;-85
2022/11/27 07:16:16;;;;;;;12.10;4.80;;;6.60;99.90;;;;;;5092501;28;20301;-86
2022/11/27 07:18:47;;;;;;;10.85;4.80;;;6.60;99.90;;;;;;5093789;28;20286;-86
2022/11/27 07:21:13;;;;;;;9.43;3.77;;;6.60;99.90;;;;;;5093548;28;20091;-86
2022/11/27 07:23:39;;;;;;;10.97;4.50;;;6.60;99.90;;;;;;5093581;28;20351;-85
2022/11/27 07:26:17;;;;;;;13.87;5.80;;;6.60;99.90;;;;;;5092283;28;20793;-85
2022/11/27 07:28:43;;;;;;;15.37;4.87;;;6.60;99.90;;;;;;5093725;28;20043;-86
2022/11/27 07:31:10;;;;;;;15.18;5.55;;;6.60;99.90;;;;;;5093243;28;20278;-85
2022/11/27 07:33:35;;;;;;;12.57;4.70;;;6.70;99.90;;;;;;5092729;28;20040;-85
2022/11/27 07:36:09;;;;;;;13.83;5.87;;;6.60;99.90;;;;;;5093222;28;20292;-85
2022/11/27 07:38:35;;;;;;;15.60;5.90;;;6.60;99.90;;;;;;5092482;28;20075;-86
2022/11/27 07:41:02;;;;;;;19.80;5.47;;;6.60;99.90;;;;;;5093057;28;20282;-85
2022/11/27 07:43:30;;;;;;;11.70;4.43;;;6.60;99.90;;;;;;5093535;28;20434;-86
2022/11/27 07:45:56;;;;;;;11.77;6.20;;;6.70;99.90;;;;;;5093200;28;20305;-87
2022/11/27 07:48:22;;;;;;;14.33;5.83;;;6.70;99.90;;;;;;5093031;28;20270;-88
2022/11/27 07:50:47;;;;;;;18.10;8.43;;;6.70;99.90;;;;;;5093226;28;20371;-87
2022/11/27 07:53:13;;;;;;;13.33;7.50;;;6.70;99.90;;;;;;5092917;28;20282;-85
2022/11/27 07:55:40;;;;;;;20.23;13.80;;;6.60;99.90;;;;;;5091974;28;20400;-84
2022/11/27 07:58:07;;;;;;;20.87;12.63;;;6.70;99.90;;;;;;5092862;28;20044;-84
2022/11/27 08:00:34;;;;;;;12.57;5.20;;;6.70;99.90;;;;;;5091877;28;20396;-84
2022/11/27 08:03:00;;;;;;;10.13;5.63;;;6.70;99.90;;;;;;5093011;28;20311;-84
2022/11/27 08:05:27;;;;;;;15.43;5.57;;;6.70;99.90;;;;;;5091677;28;20688;-84
2022/11/27 08:07:53;;;;;;;14.03;6.53;;;6.70;99.90;;;;;;5093073;28;20383;-85
2022/11/27 08:10:18;;;;;;;13.97;4.63;;;6.70;99.90;;;;;;5092753;28;20740;-83
2022/11/27 08:12:44;;;;;;;10.90;5.00;;;6.70;99.90;;;;;;5095191;28;20320;-82
2022/11/27 08:15:11;;;;;;;12.90;4.70;;;6.80;99.90;;;;;;5092579;28;20047;-82
2022/11/27 08:17:37;;;;;;;14.87;6.30;;;6.70;99.90;;;;;;5091672;28;20047;-86
2022/11/27 08:20:04;;;;;;;15.83;6.17;;;6.70;99.90;;;;;;5092868;28;20282;-85
2022/11/27 08:22:30;;;;;;;16.30;5.80;;;6.70;99.90;;;;;;5093043;28;20286;-83
2022/11/27 08:24:55;;;;;;;10.07;5.43;;;6.70;99.90;;;;;;5092895;28;20336;-86
2022/11/27 08:27:21;;;;;;;17.80;6.97;;;6.70;99.90;;;;;;5091298;28;20153;-85
2022/11/27 08:29:47;;;;;;;12.77;5.60;;;6.70;99.90;;;;;;5091638;28;20071;-87
2022/11/27 08:32:13;;;;;;;10.80;5.03;;;6.70;99.90;;;;;;5092317;28;20484;-86
2022/11/27 08:34:38;;;;;;;15.77;7.03;;;6.80;99.90;;;;;;5093245;28;20113;-83
2022/11/27 08:37:05;;;;;;;10.87;5.70;;;6.80;99.90;;;;;;5091573;28;20052;-84
2022/11/27 08:39:31;;;;;;;12.97;5.97;;;6.80;99.90;;;;;;5091490;28;20127;-84
2022/11/27 08:41:57;;;;;;;13.47;5.20;;;6.80;99.90;;;;;;5092661;28;20667;-84
2022/11/27 08:44:23;;;;;;;15.60;5.50;;;6.80;99.90;;;;;;5092414;28;20381;-83
2022/11/27 08:46:49;;;;;;;12.27;4.63;;;6.80;99.90;;;;;;5092741;28;20044;-83
2022/11/27 08:49:14;;;;;;;12.30;4.60;;;6.80;99.90;;;;;;5092345;28;20107;-84
2022/11/27 08:51:40;;;;;;;12.57;5.17;;;6.80;99.90;;;;;;5091660;28;20044;-83
2022/11/27 08:54:06;;;;;;;18.20;5.20;;;6.80;99.90;;;;;;5094475;28;20051;-84
2022/11/27 08:56:32;;;;;;;10.93;4.60;;;6.80;99.90;;;;;;5096445;28;20040;-84
2022/11/27 08:58:57;;;;;;;12.53;5.53;;;6.80;99.90;;;;;;5096286;28;20308;-83
2022/11/27 09:01:26;;;;;;;11.73;5.10;;;6.80;99.90;;;;;;5102766;28;20048;-86
2022/11/27 09:03:53;;;;;;;11.10;5.00;;;6.80;99.90;;;;;;5101889;28;20506;-86
2022/11/27 09:06:24;;;;;;;15.60;5.67;;;6.80;99.90;;;;;;5097919;28;20547;-86
2022/11/27 09:08:50;;;;;;;15.03;5.60;;;6.80;99.90;;;;;;5096201;28;20278;-85
2022/11/27 09:11:18;;;;;;;12.80;4.77;;;6.80;99.90;;;;;;5095906;28;20289;-84
2022/11/27 09:13:44;;;;;;;12.60;5.67;;;6.70;99.90;;;;;;5078324;28;20044;-83
2022/11/27 09:16:13;;;;;;;12.43;6.77;;;6.70;99.90;;;;;;5095845;28;20271;-83
2022/11/27 09:18:39;;;;;;;17.00;8.33;;;6.70;99.90;;;;;;5103893;28;20047;-86
2022/11/27 09:21:10;;;;;;;15.83;7.50;;;6.70;99.90;;;;;;5106799;28;20313;-86
2022/11/27 09:23:36;;;;;;;14.63;5.50;;;6.70;99.90;;;;;;5104671;28;20761;-86
2022/11/27 09:26:04;;;;;;;13.93;6.73;;;6.70;99.90;;;;;;5099476;28;20324;-86
2022/11/27 09:28:32;;;;;;;19.70;10.23;;;6.70;99.90;;;;;;5077361;28;20611;-85
2022/11/27 09:31:00;;;;;;;14.53;6.30;;;6.70;99.90;;;;;;5094552;28;20365;-83
2022/11/27 09:33:27;;;;;;;19.57;8.70;;;6.70;99.90;;;;;;5095414;28;20326;-84
2022/11/27 09:35:53;;;;;;;15.70;7.55;;;6.70;99.90;;;;;;5094645;28;20679;-87
2022/11/27 09:38:19;;;;;;;18.27;9.10;;;6.60;99.90;;;;;;5094350;28;20181;-87
2022/11/27 09:40:52;;;;;;;18.43;6.77;;;6.70;99.90;;;;;;5095794;28;20331;-85
2022/11/27 09:43:27;;;;;;;19.30;8.50;;;6.70;99.90;;;;;;5097868;28;20290;-88
2022/11/27 09:45:59;;;;;;;19.42;10.38;;;6.60;99.90;;;;;;5095709;28;20301;-87
2022/11/27 09:48:35;;;;;;;14.37;6.93;;;6.60;99.90;;;;;;5095300;28;20373;-84
2022/11/27 09:51:13;;;;;;;18.73;7.43;;;6.60;99.90;;;;;;5095559;28;20274;-86
2022/11/27 09:53:47;;;;;;;14.57;7.90;;;6.70;99.90;;;;;;5094218;28;20498;-86
2022/11/27 09:56:16;;;;;;;16.63;7.05;;;6.60;99.90;;;;;;5095226;28;20282;-84
2022/11/27 09:59:03;;;;;;;15.73;7.07;;;6.70;99.90;;;;;;5095294;28;20051;-86
2022/11/27 10:01:31;;;;;;;13.65;6.57;;;6.80;99.90;;;;;;5095024;28;20286;-85
2022/11/27 10:03:59;;;;;;;18.00;7.73;;;6.70;99.90;;;;;;5095089;28;20594;-87
2022/11/27 10:06:46;;;;;;;14.43;6.57;;;6.70;99.90;;;;;;5093821;28;20388;-85
2022/11/27 10:09:28;;;;;;;16.70;8.17;;;6.70;99.90;;;;;;5095007;28;20286;-86
2022/11/27 10:12:17;;;;;;;17.30;10.20;;;6.60;99.90;;;;;;5095233;28;20315;-79
2022/11/27 10:15:17;;;;;;;16.10;8.90;;;6.60;99.90;;;;;;5094845;28;20282;-76
2022/11/27 10:17:53;;;;;;;17.33;8.67;;;6.70;99.90;;;;;;5094551;28;20301;-79
2022/11/27 10:20:29;;;;;;;16.07;8.43;;;6.70;99.90;;;;;;5093609;28;20790;-79
2022/11/27 10:23:02;;;;;;;24.93;15.63;;;6.70;99.90;;;;;;5095125;28;20278;-78
2022/11/27 10:25:33;;;;;;;13.83;7.00;;;6.70;99.90;;;;;;5093430;28;20340;-77
2022/11/27 10:28:30;;;;;;;15.32;7.50;;;6.70;99.90;;;;;;5094920;28;20357;-76
2022/11/27 10:31:16;;;;;;;16.70;8.20;;;6.70;99.90;;;;;;5094534;28;20543;-75
2022/11/27 10:33:47;;;;;;;;;;;6.70;99.90;;;;;;5094449;28;20335;-79
2022/11/27 10:36:25;;;;;;;17.70;8.93;;;6.80;99.90;;;;;;5094147;28;19920;-77
2022/11/27 10:38:52;;;;;;;14.43;7.80;;;6.80;99.90;;;;;;5094653;28;20266;-78
2022/11/27 10:41:33;;;;;;;15.68;7.50;;;6.80;99.90;;;;;;5093943;28;20841;-80
2022/11/27 10:44:17;;;;;;;16.40;7.90;;;6.80;99.90;;;;;;5094657;28;20082;-78
2022/11/27 10:46:43;;;;;;;14.70;7.13;;;6.80;99.90;;;;;;5094158;28;20302;-77
2022/11/27 10:49:09;;;;;;;15.30;7.47;;;6.80;99.90;;;;;;5093962;28;20698;-76
2022/11/27 10:51:37;;;;;;;15.30;7.27;;;6.80;99.90;;;;;;5093808;28;20040;-76
2022/11/27 10:54:06;;;;;;;16.53;7.43;;;6.80;99.90;;;;;;5094124;28;20278;-77
2022/11/27 10:56:57;;;;;;;16.07;8.00;;;6.70;99.90;;;;;;5093763;28;20277;-78
2022/11/27 10:59:32;;;;;;;16.70;7.90;;;6.80;99.90;;;;;;5093781;28;20324;-79
2022/11/27 11:01:59;;;;;;;15.02;7.63;;;6.80;99.90;;;;;;5094332;28;20678;-81
2022/11/27 11:04:28;;;;;;;17.53;9.23;;;6.80;99.90;;;;;;5075768;28;20495;-78
2022/11/27 11:06:54;;;;;;;20.57;8.87;;;6.80;99.90;;;;;;5092660;28;20324;-83
2022/11/27 11:09:24;;;;;;;15.50;7.80;;;6.90;99.90;;;;;;5093846;28;20282;-86
2022/11/27 11:11:51;;;;;;;16.03;7.67;;;6.80;99.90;;;;;;5094067;28;20321;-86
2022/11/27 11:14:24;;;;;;;22.30;16.43;;;6.90;99.90;;;;;;5093882;28;20602;-83
2022/11/27 11:16:52;;;;;;;21.77;14.67;;;6.90;99.90;;;;;;5093725;28;20278;-79
2022/11/27 11:19:37;;;;;;;22.27;12.70;;;6.90;99.90;;;;;;5093603;28;20282;-81
2022/11/27 11:22:11;;;;;;;18.17;9.85;;;6.90;99.90;;;;;;5093712;28;20318;-83
2022/11/27 11:24:42;;;;;;;18.93;9.63;;;7.00;99.90;;;;;;5093463;28;20090;-82
2022/11/27 11:27:20;;;;;;;16.63;7.63;;;6.90;99.90;;;;;;5093523;28;20327;-81
2022/11/27 11:29:45;;;;;;;17.93;9.47;;;6.90;99.90;;;;;;5093297;28;20278;-81
2022/11/27 11:32:28;;;;;;;17.80;8.70;;;6.90;99.90;;;;;;5092684;28;20286;-79
2022/11/27 11:35:24;;;;;;;16.97;9.93;;;6.90;99.90;;;;;;5109701;28;20109;-81
2022/11/27 11:37:51;;;;;;;;;;;6.90;99.90;;;;;;5094893;28;20351;-80
2022/11/27 11:40:28;;;;;;;17.57;8.27;;;7.00;99.90;;;;;;5093485;28;19945;-85
2022/11/27 11:42:56;;;;;;;15.70;9.03;;;7.00;99.90;;;;;;5092074;28;20294;-84
2022/11/27 11:45:22;;;;;;;18.87;9.97;;;6.90;99.90;;;;;;5092371;28;20630;-84
2022/11/27 11:48:02;;;;;;;17.47;9.13;;;7.00;99.90;;;;;;5091740;28;20306;-85
2022/11/27 11:50:40;;;;;;;19.73;9.87;;;7.00;99.90;;;;;;5093168;28;20044;-81
2022/11/27 11:53:30;;;;;;;18.07;8.43;;;7.00;99.90;;;;;;5092601;28;20634;-82
2022/11/27 11:56:25;;;;;;;16.53;10.57;;;7.00;99.90;;;;;;5093184;28;20282;-82
2022/11/27 11:59:02;;;;;;;20.23;12.43;;;7.00;99.90;;;;;;5092975;28;20282;-86
2022/11/27 12:01:46;;;;;;;20.93;16.17;;;7.00;99.90;;;;;;5092894;28;20324;-86
2022/11/27 12:04:21;;;;;;;18.47;10.83;;;7.00;99.90;;;;;;5093040;28;20828;-82
2022/11/27 12:07:15;;;;;;;19.30;9.80;;;7.10;99.90;;;;;;5092833;28;20757;-81
2022/11/27 12:10:06;;;;;;;19.23;10.63;;;7.10;99.90;;;;;;5091789;28;20498;-82
2022/11/27 12:12:53;;;;;;;19.97;11.50;;;7.10;99.90;;;;;;5091545;28;20367;-82
2022/11/27 12:15:30;;;;;;;27.10;13.37;;;7.10;99.90;;;;;;5099382;28;20282;-82
2022/11/27 12:17:59;;;;;;;19.63;11.60;;;7.10;99.90;;;;;;5099203;28;20282;-82
2022/11/27 12:20:40;;;;;;;20.47;10.67;;;7.10;99.90;;;;;;5102409;28;20285;-84
2022/11/27 12:23:24;;;;;;;20.87;10.23;;;7.10;99.90;;;;;;5101658;28;20326;-81
2022/11/27 12:25:54;;;;;;;19.27;9.80;;;7.10;99.90;;;;;;5101458;28;20293;-83
2022/11/27 12:28:35;;;;;;;15.70;9.83;;;7.10;99.90;;;;;;5101110;28;20270;-81
2022/11/27 12:31:22;;;;;;;51.20;23.97;;;7.20;99.90;;;;;;5104221;28;20298;-81
2022/11/27 12:33:47;;;;;;;24.03;12.43;;;7.20;99.90;;;;;;5105794;28;20282;-80
2022/11/27 12:36:28;;;;;;;48.60;26.20;;;7.10;99.90;;;;;;5102508;28;20286;-79
2022/11/27 12:39:08;;;;;;;92.00;34.30;;;7.20;99.90;;;;;;5096455;28;20044;-78
2022/11/27 12:41:53;;;;;;;24.77;17.07;;;7.20;99.90;;;;;;5096392;28;20645;-79
2022/11/27 12:44:38;;;;;;;23.30;14.10;;;7.20;99.90;;;;;;5096910;28;20289;-78
2022/11/27 12:47:09;;;;;;;17.65;11.93;;;7.20;99.90;;;;;;5096532;28;20097;-79
2022/11/27 12:50:04;;;;;;;22.00;12.30;;;7.20;99.90;;;;;;5096395;28;20044;-79
2022/11/27 12:52:44;;;;;;;15.65;8.48;;;7.20;99.90;;;;;;5096707;28;20336;-77
2022/11/27 12:55:27;;;;;;;17.63;9.10;;;7.20;99.90;;;;;;5096519;28;20044;-78
2022/11/27 12:58:03;;;;;;;14.17;8.70;;;7.20;99.90;;;;;;5096218;28;20375;-78
2022/11/27 13:00:31;;;;;;;19.33;10.90;;;7.20;99.90;;;;;;5096496;28;20735;-78
2022/11/27 13:03:05;;;;;;;12.80;8.20;;;7.20;99.90;;;;;;5095778;28;20776;-80
2022/11/27 13:05:49;;;;;;;15.40;9.03;;;7.20;99.90;;;;;;5096371;28;20286;-80